sensor_id;sensor_type;location;lat;lon;timestamp;P1;durP1;ratioP1;P2;durP2;ratioP2
11510;SDS011;5812;48.864;9.190;2022-12-01T00:01:10;16.23;;;16.13;;
11510;SDS011;5812;48.864;9.190;2022-12-01T00:03:37;15.90;;;15.80;;
11510;SDS011;5812;48.864;9.190;2022-12-01T00:08:30;16.13;;;16.03;;
11510;SDS011;5812;48.864;9.190;2022-12-01T00:11:04;15.97;;;15.87;;
11510;SDS011;5812;48.864;9.190;2022-12-01T00:13:36;15.70;;;15.60;;
11510;SDS011;5812;48.864;9.190;2022-12-01T00:16:11;15.77;;;15.67;;
11510;SDS011;5812;48.864;9.190;2022-12-01T00:18:38;15.00;;;14.90;;
11510;SDS011;5812;48.864;9.190;2022-12-01T00:21:04;15.57;;;15.47;;
11510;SDS011;5812;48.864;9.190;2022-12-01T00:23:30;15.27;;;15.17;;
11510;SDS011;5812;48.864;9.190;2022-12-01T00:26:02;17.10;;;17.00;;
11510;SDS011;5812;48.864;9.190;2022-12-01T00:28:29;16.97;;;16.87;;
11510;SDS011;5812;48.864;9.190;2022-12-01T00:30:54;14.63;;;14.53;;
11510;SDS011;5812;48.864;9.190;2022-12-01T00:33:20;15.93;;;15.83;;
11510;SDS011;5812;48.864;9.190;2022-12-01T00:35:45;15.07;;;14.97;;
11510;SDS011;5812;48.864;9.190;2022-12-01T00:38:11;16.47;;;16.37;;
11510;SDS011;5812;48.864;9.190;2022-12-01T00:40:37;14.53;;;14.43;;
11510;SDS011;5812;48.864;9.190;2022-12-01T00:43:02;16.47;;;16.37;;
11510;SDS011;5812;48.864;9.190;2022-12-01T00:45:28;15.57;;;15.47;;
11510;SDS011;5812;48.864;9.190;2022-12-01T00:47:53;14.47;;;14.37;;
11510;SDS011;5812;48.864;9.190;2022-12-01T00:50:19;15.37;;;15.27;;
11510;SDS011;5812;48.864;9.190;2022-12-01T00:52:44;16.13;;;16.03;;
11510;SDS011;5812;48.864;9.190;2022-12-01T00:55:10;15.30;;;15.20;;
11510;SDS011;5812;48.864;9.190;2022-12-01T00:57:35;15.57;;;15.47;;
11510;SDS011;5812;48.864;9.190;2022-12-01T01:00:01;15.03;;;14.93;;
11510;SDS011;5812;48.864;9.190;2022-12-01T01:02:29;15.97;;;15.87;;
11510;SDS011;5812;48.864;9.190;2022-12-01T01:04:55;16.70;;;16.60;;
11510;SDS011;5812;48.864;9.190;2022-12-01T01:07:21;15.57;;;15.47;;
11510;SDS011;5812;48.864;9.190;2022-12-01T01:09:46;15.00;;;14.90;;
11510;SDS011;5812;48.864;9.190;2022-12-01T01:12:12;15.47;;;15.37;;
11510;SDS011;5812;48.864;9.190;2022-12-01T01:14:37;14.30;;;14.20;;
11510;SDS011;5812;48.864;9.190;2022-12-01T01:17:03;15.20;;;15.10;;
11510;SDS011;5812;48.864;9.190;2022-12-01T01:19:29;15.83;;;15.73;;
11510;SDS011;5812;48.864;9.190;2022-12-01T01:21:54;15.40;;;15.30;;
11510;SDS011;5812;48.864;9.190;2022-12-01T01:24:20;15.67;;;15.57;;
11510;SDS011;5812;48.864;9.190;2022-12-01T01:26:45;14.53;;;14.43;;
11510;SDS011;5812;48.864;9.190;2022-12-01T01:29:11;14.80;;;14.70;;
11510;SDS011;5812;48.864;9.190;2022-12-01T01:31:39;14.17;;;14.07;;
11510;SDS011;5812;48.864;9.190;2022-12-01T01:34:08;14.23;;;14.13;;
11510;SDS011;5812;48.864;9.190;2022-12-01T01:36:33;16.47;;;16.37;;
11510;SDS011;5812;48.864;9.190;2022-12-01T01:38:59;14.20;;;14.10;;
11510;SDS011;5812;48.864;9.190;2022-12-01T01:41:25;14.50;;;14.40;;
11510;SDS011;5812;48.864;9.190;2022-12-01T01:46:26;13.93;;;13.83;;
11510;SDS011;5812;48.864;9.190;2022-12-01T01:48:53;15.23;;;15.13;;
11510;SDS011;5812;48.864;9.190;2022-12-01T01:51:44;14.80;;;14.70;;
11510;SDS011;5812;48.864;9.190;2022-12-01T01:54:16;14.03;;;13.93;;
11510;SDS011;5812;48.864;9.190;2022-12-01T01:56:49;15.60;;;15.50;;
11510;SDS011;5812;48.864;9.190;2022-12-01T01:59:18;14.07;;;13.97;;
11510;SDS011;5812;48.864;9.190;2022-12-01T02:02:15;13.63;;;13.53;;
11510;SDS011;5812;48.864;9.190;2022-12-01T02:04:40;13.53;;;13.43;;
11510;SDS011;5812;48.864;9.190;2022-12-01T02:07:10;13.93;;;13.83;;
11510;SDS011;5812;48.864;9.190;2022-12-01T02:09:37;14.13;;;14.03;;
11510;SDS011;5812;48.864;9.190;2022-12-01T02:20:55;13.10;;;13.00;;
11510;SDS011;5812;48.864;9.190;2022-12-01T02:45:17;13.17;;;13.07;;
11510;SDS011;5812;48.864;9.190;2022-12-01T02:47:51;12.70;;;12.60;;
11510;SDS011;5812;48.864;9.190;2022-12-01T02:50:20;12.13;;;12.03;;
11510;SDS011;5812;48.864;9.190;2022-12-01T02:52:49;12.33;;;12.23;;
11510;SDS011;5812;48.864;9.190;2022-12-01T02:55:14;12.27;;;12.17;;
11510;SDS011;5812;48.864;9.190;2022-12-01T02:57:40;11.20;;;11.20;;
11510;SDS011;5812;48.864;9.190;2022-12-01T03:00:06;11.27;;;11.23;;
11510;SDS011;5812;48.864;9.190;2022-12-01T03:02:44;11.37;;;11.37;;
11510;SDS011;5812;48.864;9.190;2022-12-01T03:08:33;11.73;;;11.73;;
11510;SDS011;5812;48.864;9.190;2022-12-01T03:11:11;11.77;;;11.73;;
11510;SDS011;5812;48.864;9.190;2022-12-01T03:16:57;11.40;;;11.40;;
11510;SDS011;5812;48.864;9.190;2022-12-01T03:19:34;12.03;;;12.03;;
11510;SDS011;5812;48.864;9.190;2022-12-01T03:22:03;12.40;;;12.40;;
11510;SDS011;5812;48.864;9.190;2022-12-01T03:24:34;11.83;;;11.73;;
11510;SDS011;5812;48.864;9.190;2022-12-01T03:27:02;13.93;;;13.83;;
11510;SDS011;5812;48.864;9.190;2022-12-01T03:29:37;15.10;;;15.00;;
11510;SDS011;5812;48.864;9.190;2022-12-01T03:32:08;13.13;;;13.03;;
11510;SDS011;5812;48.864;9.190;2022-12-01T03:35:07;13.60;;;13.50;;
11510;SDS011;5812;48.864;9.190;2022-12-01T03:37:46;14.07;;;13.97;;
11510;SDS011;5812;48.864;9.190;2022-12-01T03:40:17;14.73;;;14.63;;
11510;SDS011;5812;48.864;9.190;2022-12-01T03:42:59;13.67;;;13.57;;
11510;SDS011;5812;48.864;9.190;2022-12-01T03:48:23;14.00;;;13.90;;
11510;SDS011;5812;48.864;9.190;2022-12-01T03:53:26;14.23;;;14.13;;
11510;SDS011;5812;48.864;9.190;2022-12-01T03:56:00;14.03;;;13.93;;
11510;SDS011;5812;48.864;9.190;2022-12-01T03:58:32;15.07;;;14.97;;
11510;SDS011;5812;48.864;9.190;2022-12-01T04:01:03;14.37;;;14.27;;
11510;SDS011;5812;48.864;9.190;2022-12-01T04:03:29;14.80;;;14.70;;
11510;SDS011;5812;48.864;9.190;2022-12-01T04:05:55;15.50;;;15.40;;
11510;SDS011;5812;48.864;9.190;2022-12-01T04:08:22;16.33;;;16.23;;
11510;SDS011;5812;48.864;9.190;2022-12-01T04:10:47;15.93;;;15.83;;
11510;SDS011;5812;48.864;9.190;2022-12-01T04:13:13;16.03;;;15.93;;
11510;SDS011;5812;48.864;9.190;2022-12-01T04:15:51;15.13;;;15.03;;
11510;SDS011;5812;48.864;9.190;2022-12-01T04:18:18;14.00;;;13.90;;
11510;SDS011;5812;48.864;9.190;2022-12-01T04:20:45;14.60;;;14.50;;
11510;SDS011;5812;48.864;9.190;2022-12-01T04:23:11;14.07;;;13.97;;
11510;SDS011;5812;48.864;9.190;2022-12-01T04:26:00;16.80;;;16.70;;
11510;SDS011;5812;48.864;9.190;2022-12-01T04:28:27;15.60;;;15.50;;
11510;SDS011;5812;48.864;9.190;2022-12-01T04:30:52;15.13;;;15.03;;
11510;SDS011;5812;48.864;9.190;2022-12-01T04:33:18;15.70;;;15.60;;
11510;SDS011;5812;48.864;9.190;2022-12-01T04:35:43;16.27;;;16.17;;
11510;SDS011;5812;48.864;9.190;2022-12-01T04:38:09;15.10;;;15.00;;
11510;SDS011;5812;48.864;9.190;2022-12-01T04:40:36;16.20;;;16.10;;
11510;SDS011;5812;48.864;9.190;2022-12-01T04:43:02;13.93;;;13.83;;
11510;SDS011;5812;48.864;9.190;2022-12-01T04:45:28;15.73;;;15.63;;
11510;SDS011;5812;48.864;9.190;2022-12-01T04:47:53;16.77;;;16.67;;
11510;SDS011;5812;48.864;9.190;2022-12-01T04:50:19;18.10;;;18.00;;
11510;SDS011;5812;48.864;9.190;2022-12-01T04:52:45;15.33;;;15.23;;
11510;SDS011;5812;48.864;9.190;2022-12-01T04:55:11;15.40;;;15.30;;
11510;SDS011;5812;48.864;9.190;2022-12-01T04:57:39;16.17;;;16.07;;
11510;SDS011;5812;48.864;9.190;2022-12-01T05:00:05;15.57;;;15.47;;
11510;SDS011;5812;48.864;9.190;2022-12-01T05:02:37;16.17;;;16.07;;
11510;SDS011;5812;48.864;9.190;2022-12-01T05:05:03;15.90;;;15.80;;
11510;SDS011;5812;48.864;9.190;2022-12-01T05:07:30;15.57;;;15.47;;
11510;SDS011;5812;48.864;9.190;2022-12-01T05:09:56;14.27;;;14.17;;
11510;SDS011;5812;48.864;9.190;2022-12-01T05:12:22;16.30;;;16.20;;
11510;SDS011;5812;48.864;9.190;2022-12-01T05:14:48;15.13;;;15.03;;
11510;SDS011;5812;48.864;9.190;2022-12-01T05:17:13;15.00;;;14.90;;
11510;SDS011;5812;48.864;9.190;2022-12-01T05:19:39;14.57;;;14.47;;
11510;SDS011;5812;48.864;9.190;2022-12-01T05:22:23;15.93;;;15.83;;
11510;SDS011;5812;48.864;9.190;2022-12-01T05:24:49;15.40;;;15.30;;
11510;SDS011;5812;48.864;9.190;2022-12-01T05:27:14;14.90;;;14.80;;
11510;SDS011;5812;48.864;9.190;2022-12-01T05:29:40;14.80;;;14.70;;
11510;SDS011;5812;48.864;9.190;2022-12-01T05:32:05;14.17;;;14.07;;
11510;SDS011;5812;48.864;9.190;2022-12-01T05:34:31;14.23;;;14.13;;
11510;SDS011;5812;48.864;9.190;2022-12-01T05:36:57;14.70;;;14.60;;
11510;SDS011;5812;48.864;9.190;2022-12-01T05:39:22;13.27;;;13.17;;
11510;SDS011;5812;48.864;9.190;2022-12-01T05:41:48;14.70;;;14.60;;
11510;SDS011;5812;48.864;9.190;2022-12-01T05:44:13;12.70;;;12.60;;
11510;SDS011;5812;48.864;9.190;2022-12-01T05:46:39;12.93;;;12.83;;
11510;SDS011;5812;48.864;9.190;2022-12-01T05:49:04;15.03;;;14.93;;
11510;SDS011;5812;48.864;9.190;2022-12-01T05:51:30;15.40;;;15.30;;
11510;SDS011;5812;48.864;9.190;2022-12-01T05:53:57;15.43;;;15.33;;
11510;SDS011;5812;48.864;9.190;2022-12-01T05:56:23;15.37;;;15.27;;
11510;SDS011;5812;48.864;9.190;2022-12-01T05:58:49;14.80;;;14.70;;
11510;SDS011;5812;48.864;9.190;2022-12-01T06:01:15;14.77;;;14.67;;
11510;SDS011;5812;48.864;9.190;2022-12-01T06:03:41;15.43;;;15.33;;
11510;SDS011;5812;48.864;9.190;2022-12-01T06:06:06;14.90;;;14.80;;
11510;SDS011;5812;48.864;9.190;2022-12-01T06:08:32;15.60;;;15.50;;
11510;SDS011;5812;48.864;9.190;2022-12-01T06:10:58;14.50;;;14.40;;
11510;SDS011;5812;48.864;9.190;2022-12-01T06:13:23;15.50;;;15.40;;
11510;SDS011;5812;48.864;9.190;2022-12-01T06:15:59;17.00;;;16.90;;
11510;SDS011;5812;48.864;9.190;2022-12-01T06:18:28;15.60;;;15.50;;
11510;SDS011;5812;48.864;9.190;2022-12-01T06:20:55;16.30;;;16.20;;
11510;SDS011;5812;48.864;9.190;2022-12-01T06:23:21;16.73;;;16.63;;
11510;SDS011;5812;48.864;9.190;2022-12-01T06:25:47;15.67;;;15.57;;
11510;SDS011;5812;48.864;9.190;2022-12-01T06:28:12;16.33;;;16.23;;
11510;SDS011;5812;48.864;9.190;2022-12-01T06:30:38;15.97;;;15.87;;
11510;SDS011;5812;48.864;9.190;2022-12-01T06:33:04;17.70;;;17.60;;
11510;SDS011;5812;48.864;9.190;2022-12-01T06:35:29;19.83;;;19.73;;
11510;SDS011;5812;48.864;9.190;2022-12-01T06:37:55;17.97;;;17.87;;
11510;SDS011;5812;48.864;9.190;2022-12-01T06:40:21;15.23;;;15.13;;
11510;SDS011;5812;48.864;9.190;2022-12-01T06:42:47;15.77;;;15.67;;
11510;SDS011;5812;48.864;9.190;2022-12-01T06:45:12;15.87;;;15.77;;
11510;SDS011;5812;48.864;9.190;2022-12-01T06:47:38;15.20;;;15.10;;
11510;SDS011;5812;48.864;9.190;2022-12-01T06:50:04;14.87;;;14.77;;
11510;SDS011;5812;48.864;9.190;2022-12-01T06:52:35;16.17;;;16.07;;
11510;SDS011;5812;48.864;9.190;2022-12-01T06:55:01;14.33;;;14.23;;
11510;SDS011;5812;48.864;9.190;2022-12-01T06:57:28;14.37;;;14.27;;
11510;SDS011;5812;48.864;9.190;2022-12-01T06:59:54;15.87;;;15.77;;
11510;SDS011;5812;48.864;9.190;2022-12-01T07:02:19;15.53;;;15.43;;
11510;SDS011;5812;48.864;9.190;2022-12-01T07:04:45;15.73;;;15.63;;
11510;SDS011;5812;48.864;9.190;2022-12-01T07:07:11;14.53;;;14.43;;
11510;SDS011;5812;48.864;9.190;2022-12-01T07:09:37;15.17;;;15.07;;
11510;SDS011;5812;48.864;9.190;2022-12-01T07:12:02;14.93;;;14.83;;
11510;SDS011;5812;48.864;9.190;2022-12-01T07:14:28;15.23;;;15.13;;
11510;SDS011;5812;48.864;9.190;2022-12-01T07:16:55;14.93;;;14.83;;
11510;SDS011;5812;48.864;9.190;2022-12-01T07:19:21;14.13;;;14.03;;
11510;SDS011;5812;48.864;9.190;2022-12-01T07:21:47;15.03;;;14.93;;
11510;SDS011;5812;48.864;9.190;2022-12-01T07:24:13;15.70;;;15.60;;
11510;SDS011;5812;48.864;9.190;2022-12-01T07:26:39;14.50;;;14.40;;
11510;SDS011;5812;48.864;9.190;2022-12-01T07:29:05;15.53;;;15.43;;
11510;SDS011;5812;48.864;9.190;2022-12-01T07:31:31;15.17;;;15.07;;
11510;SDS011;5812;48.864;9.190;2022-12-01T07:33:56;14.50;;;14.40;;
11510;SDS011;5812;48.864;9.190;2022-12-01T07:36:22;14.43;;;14.33;;
11510;SDS011;5812;48.864;9.190;2022-12-01T07:38:48;15.00;;;14.90;;
11510;SDS011;5812;48.864;9.190;2022-12-01T07:41:14;15.13;;;15.03;;
11510;SDS011;5812;48.864;9.190;2022-12-01T07:43:43;14.17;;;14.07;;
11510;SDS011;5812;48.864;9.190;2022-12-01T07:46:10;15.10;;;15.00;;
11510;SDS011;5812;48.864;9.190;2022-12-01T07:48:38;14.70;;;14.60;;
11510;SDS011;5812;48.864;9.190;2022-12-01T07:51:05;13.97;;;13.87;;
11510;SDS011;5812;48.864;9.190;2022-12-01T07:53:31;15.13;;;15.03;;
11510;SDS011;5812;48.864;9.190;2022-12-01T07:55:57;14.10;;;14.00;;
11510;SDS011;5812;48.864;9.190;2022-12-01T07:58:23;13.40;;;13.30;;
11510;SDS011;5812;48.864;9.190;2022-12-01T08:00:48;14.20;;;14.10;;
11510;SDS011;5812;48.864;9.190;2022-12-01T08:03:14;13.87;;;13.77;;
11510;SDS011;5812;48.864;9.190;2022-12-01T08:05:40;15.03;;;14.93;;
11510;SDS011;5812;48.864;9.190;2022-12-01T08:08:05;14.73;;;14.63;;
11510;SDS011;5812;48.864;9.190;2022-12-01T08:10:31;14.07;;;13.97;;
11510;SDS011;5812;48.864;9.190;2022-12-01T08:12:56;13.87;;;13.77;;
11510;SDS011;5812;48.864;9.190;2022-12-01T08:15:25;14.30;;;14.20;;
11510;SDS011;5812;48.864;9.190;2022-12-01T08:17:50;13.63;;;13.53;;
11510;SDS011;5812;48.864;9.190;2022-12-01T08:20:16;13.67;;;13.57;;
11510;SDS011;5812;48.864;9.190;2022-12-01T08:22:41;13.63;;;13.53;;
11510;SDS011;5812;48.864;9.190;2022-12-01T08:25:07;15.30;;;15.20;;
11510;SDS011;5812;48.864;9.190;2022-12-01T08:27:34;15.17;;;15.07;;
11510;SDS011;5812;48.864;9.190;2022-12-01T08:30:00;15.60;;;15.50;;
11510;SDS011;5812;48.864;9.190;2022-12-01T08:32:25;13.50;;;13.40;;
11510;SDS011;5812;48.864;9.190;2022-12-01T08:34:53;17.27;;;17.17;;
11510;SDS011;5812;48.864;9.190;2022-12-01T08:37:19;14.47;;;14.37;;
11510;SDS011;5812;48.864;9.190;2022-12-01T08:39:44;14.47;;;14.37;;
11510;SDS011;5812;48.864;9.190;2022-12-01T08:42:10;13.10;;;13.00;;
11510;SDS011;5812;48.864;9.190;2022-12-01T08:44:36;14.20;;;14.10;;
11510;SDS011;5812;48.864;9.190;2022-12-01T08:47:01;13.30;;;13.20;;
11510;SDS011;5812;48.864;9.190;2022-12-01T08:49:27;13.70;;;13.60;;
11510;SDS011;5812;48.864;9.190;2022-12-01T08:51:52;14.07;;;13.97;;
11510;SDS011;5812;48.864;9.190;2022-12-01T08:54:20;14.27;;;14.17;;
11510;SDS011;5812;48.864;9.190;2022-12-01T08:56:46;14.33;;;14.23;;
11510;SDS011;5812;48.864;9.190;2022-12-01T08:59:12;14.43;;;14.33;;
11510;SDS011;5812;48.864;9.190;2022-12-01T09:01:38;14.37;;;14.27;;
11510;SDS011;5812;48.864;9.190;2022-12-01T09:04:16;14.73;;;14.63;;
11510;SDS011;5812;48.864;9.190;2022-12-01T09:06:46;15.47;;;15.37;;
11510;SDS011;5812;48.864;9.190;2022-12-01T09:09:14;14.97;;;14.87;;
11510;SDS011;5812;48.864;9.190;2022-12-01T09:11:44;14.87;;;14.77;;
11510;SDS011;5812;48.864;9.190;2022-12-01T09:14:11;15.20;;;15.10;;
11510;SDS011;5812;48.864;9.190;2022-12-01T09:16:38;15.03;;;14.93;;
11510;SDS011;5812;48.864;9.190;2022-12-01T09:19:05;14.67;;;14.57;;
11510;SDS011;5812;48.864;9.190;2022-12-01T09:21:31;19.40;;;19.30;;
11510;SDS011;5812;48.864;9.190;2022-12-01T09:23:58;14.63;;;14.53;;
11510;SDS011;5812;48.864;9.190;2022-12-01T09:26:25;14.57;;;14.47;;
11510;SDS011;5812;48.864;9.190;2022-12-01T09:28:52;14.90;;;14.80;;
11510;SDS011;5812;48.864;9.190;2022-12-01T09:31:21;12.97;;;12.87;;
11510;SDS011;5812;48.864;9.190;2022-12-01T09:33:48;14.13;;;14.03;;
11510;SDS011;5812;48.864;9.190;2022-12-01T09:36:21;13.50;;;13.40;;
11510;SDS011;5812;48.864;9.190;2022-12-01T09:38:47;14.20;;;14.10;;
11510;SDS011;5812;48.864;9.190;2022-12-01T09:43:39;14.43;;;14.33;;
11510;SDS011;5812;48.864;9.190;2022-12-01T09:46:15;13.87;;;13.77;;
11510;SDS011;5812;48.864;9.190;2022-12-01T09:48:46;14.17;;;14.07;;
11510;SDS011;5812;48.864;9.190;2022-12-01T09:51:16;13.97;;;13.87;;
11510;SDS011;5812;48.864;9.190;2022-12-01T09:53:48;13.10;;;13.10;;
11510;SDS011;5812;48.864;9.190;2022-12-01T09:56:23;12.40;;;12.40;;
11510;SDS011;5812;48.864;9.190;2022-12-01T09:58:55;15.97;;;15.87;;
11510;SDS011;5812;48.864;9.190;2022-12-01T10:01:40;14.40;;;14.30;;
11510;SDS011;5812;48.864;9.190;2022-12-01T10:04:31;14.73;;;14.63;;
11510;SDS011;5812;48.864;9.190;2022-12-01T10:07:03;13.60;;;13.50;;
11510;SDS011;5812;48.864;9.190;2022-12-01T10:09:45;14.00;;;13.90;;
11510;SDS011;5812;48.864;9.190;2022-12-01T10:12:17;13.77;;;13.67;;
11510;SDS011;5812;48.864;9.190;2022-12-01T10:14:45;13.77;;;13.67;;
11510;SDS011;5812;48.864;9.190;2022-12-01T10:26:02;13.63;;;13.53;;
11510;SDS011;5812;48.864;9.190;2022-12-01T10:31:13;13.30;;;13.20;;
11510;SDS011;5812;48.864;9.190;2022-12-01T10:33:49;15.20;;;15.10;;
11510;SDS011;5812;48.864;9.190;2022-12-01T10:36:25;14.30;;;14.20;;
11510;SDS011;5812;48.864;9.190;2022-12-01T10:38:52;14.10;;;14.00;;
11510;SDS011;5812;48.864;9.190;2022-12-01T10:41:18;14.60;;;14.50;;
11510;SDS011;5812;48.864;9.190;2022-12-01T10:43:46;15.23;;;15.13;;
11510;SDS011;5812;48.864;9.190;2022-12-01T10:48:59;14.73;;;14.63;;
11510;SDS011;5812;48.864;9.190;2022-12-01T10:51:44;13.50;;;13.40;;
11510;SDS011;5812;48.864;9.190;2022-12-01T10:54:21;13.10;;;13.00;;
11510;SDS011;5812;48.864;9.190;2022-12-01T10:56:55;14.73;;;14.63;;
11510;SDS011;5812;48.864;9.190;2022-12-01T11:02:28;15.33;;;15.23;;
11510;SDS011;5812;48.864;9.190;2022-12-01T11:05:03;14.23;;;14.13;;
11510;SDS011;5812;48.864;9.190;2022-12-01T11:07:33;14.10;;;14.00;;
11510;SDS011;5812;48.864;9.190;2022-12-01T11:10:25;14.33;;;14.23;;
11510;SDS011;5812;48.864;9.190;2022-12-01T11:12:58;12.80;;;12.80;;
11510;SDS011;5812;48.864;9.190;2022-12-01T11:15:26;14.03;;;13.93;;
11510;SDS011;5812;48.864;9.190;2022-12-01T11:18:00;12.67;;;12.57;;
11510;SDS011;5812;48.864;9.190;2022-12-01T11:20:32;13.13;;;13.03;;
11510;SDS011;5812;48.864;9.190;2022-12-01T11:23:20;12.80;;;12.80;;
11510;SDS011;5812;48.864;9.190;2022-12-01T11:29:02;12.90;;;12.87;;
11510;SDS011;5812;48.864;9.190;2022-12-01T11:31:40;13.80;;;13.70;;
11510;SDS011;5812;48.864;9.190;2022-12-01T11:34:16;12.27;;;12.27;;
11510;SDS011;5812;48.864;9.190;2022-12-01T11:36:49;11.43;;;11.43;;
11510;SDS011;5812;48.864;9.190;2022-12-01T11:41:46;11.90;;;11.90;;
11510;SDS011;5812;48.864;9.190;2022-12-01T11:44:18;12.17;;;12.10;;
11510;SDS011;5812;48.864;9.190;2022-12-01T11:46:44;12.93;;;12.83;;
11510;SDS011;5812;48.864;9.190;2022-12-01T11:49:15;12.80;;;12.70;;
11510;SDS011;5812;48.864;9.190;2022-12-01T11:51:42;12.13;;;12.03;;
11510;SDS011;5812;48.864;9.190;2022-12-01T11:54:16;12.33;;;12.33;;
11510;SDS011;5812;48.864;9.190;2022-12-01T11:56:50;11.30;;;11.30;;
11510;SDS011;5812;48.864;9.190;2022-12-01T11:59:20;11.53;;;11.53;;
11510;SDS011;5812;48.864;9.190;2022-12-01T12:15:56;12.30;;;12.20;;
11510;SDS011;5812;48.864;9.190;2022-12-01T12:22:04;12.07;;;12.07;;
11510;SDS011;5812;48.864;9.190;2022-12-01T12:24:38;12.37;;;12.27;;
11510;SDS011;5812;48.864;9.190;2022-12-01T12:27:28;11.17;;;11.17;;
11510;SDS011;5812;48.864;9.190;2022-12-01T12:33:03;11.40;;;11.40;;
11510;SDS011;5812;48.864;9.190;2022-12-01T12:35:51;11.83;;;11.83;;
11510;SDS011;5812;48.864;9.190;2022-12-01T12:51:34;12.57;;;12.57;;
11510;SDS011;5812;48.864;9.190;2022-12-01T12:56:35;12.37;;;12.27;;
11510;SDS011;5812;48.864;9.190;2022-12-01T12:59:15;12.30;;;12.20;;
11510;SDS011;5812;48.864;9.190;2022-12-01T13:01:56;11.57;;;11.57;;
11510;SDS011;5812;48.864;9.190;2022-12-01T13:04:37;12.87;;;12.83;;
11510;SDS011;5812;48.864;9.190;2022-12-01T13:09:41;10.77;;;10.77;;
11510;SDS011;5812;48.864;9.190;2022-12-01T13:12:29;12.10;;;12.03;;
11510;SDS011;5812;48.864;9.190;2022-12-01T13:15:11;10.87;;;10.87;;
11510;SDS011;5812;48.864;9.190;2022-12-01T13:20:17;10.63;;;10.63;;
11510;SDS011;5812;48.864;9.190;2022-12-01T13:22:45;11.60;;;11.60;;
11510;SDS011;5812;48.864;9.190;2022-12-01T13:25:12;10.90;;;10.80;;
11510;SDS011;5812;48.864;9.190;2022-12-01T13:27:59;11.80;;;11.80;;
11510;SDS011;5812;48.864;9.190;2022-12-01T13:30:27;12.33;;;12.23;;
11510;SDS011;5812;48.864;9.190;2022-12-01T13:33:00;11.50;;;11.50;;
11510;SDS011;5812;48.864;9.190;2022-12-01T13:40:44;12.73;;;12.63;;
11510;SDS011;5812;48.864;9.190;2022-12-01T13:43:18;11.80;;;11.70;;
11510;SDS011;5812;48.864;9.190;2022-12-01T13:45:45;12.73;;;12.63;;
11510;SDS011;5812;48.864;9.190;2022-12-01T13:51:14;10.83;;;10.83;;
11510;SDS011;5812;48.864;9.190;2022-12-01T13:56:43;12.17;;;12.17;;
11510;SDS011;5812;48.864;9.190;2022-12-01T14:02:15;12.80;;;12.70;;
11510;SDS011;5812;48.864;9.190;2022-12-01T14:04:45;12.20;;;12.10;;
11510;SDS011;5812;48.864;9.190;2022-12-01T14:07:21;11.93;;;11.87;;
11510;SDS011;5812;48.864;9.190;2022-12-01T14:09:55;12.03;;;12.03;;
11510;SDS011;5812;48.864;9.190;2022-12-01T14:12:30;11.70;;;11.70;;
11510;SDS011;5812;48.864;9.190;2022-12-01T14:15:03;11.50;;;11.50;;
11510;SDS011;5812;48.864;9.190;2022-12-01T14:17:45;12.07;;;12.07;;
11510;SDS011;5812;48.864;9.190;2022-12-01T14:22:38;11.93;;;11.93;;
11510;SDS011;5812;48.864;9.190;2022-12-01T14:25:27;11.97;;;11.87;;
11510;SDS011;5812;48.864;9.190;2022-12-01T14:27:55;11.67;;;11.63;;
11510;SDS011;5812;48.864;9.190;2022-12-01T14:36:04;11.77;;;11.77;;
11510;SDS011;5812;48.864;9.190;2022-12-01T14:38:33;11.80;;;11.80;;
11510;SDS011;5812;48.864;9.190;2022-12-01T14:40:59;11.77;;;11.77;;
11510;SDS011;5812;48.864;9.190;2022-12-01T14:43:30;12.27;;;12.27;;
11510;SDS011;5812;48.864;9.190;2022-12-01T14:46:18;11.80;;;11.70;;
11510;SDS011;5812;48.864;9.190;2022-12-01T14:48:46;11.83;;;11.83;;
11510;SDS011;5812;48.864;9.190;2022-12-01T14:53:52;10.57;;;10.57;;
11510;SDS011;5812;48.864;9.190;2022-12-01T14:56:20;12.20;;;12.20;;
11510;SDS011;5812;48.864;9.190;2022-12-01T14:58:52;11.70;;;11.63;;
11510;SDS011;5812;48.864;9.190;2022-12-01T15:01:22;12.10;;;12.10;;
11510;SDS011;5812;48.864;9.190;2022-12-01T15:03:50;11.40;;;11.37;;
11510;SDS011;5812;48.864;9.190;2022-12-01T15:06:23;11.57;;;11.57;;
11510;SDS011;5812;48.864;9.190;2022-12-01T15:09:04;12.63;;;12.53;;
11510;SDS011;5812;48.864;9.190;2022-12-01T15:11:34;11.57;;;11.57;;
11510;SDS011;5812;48.864;9.190;2022-12-01T15:14:01;13.00;;;12.97;;
11510;SDS011;5812;48.864;9.190;2022-12-01T15:16:30;11.63;;;11.63;;
11510;SDS011;5812;48.864;9.190;2022-12-01T15:19:20;12.37;;;12.37;;
11510;SDS011;5812;48.864;9.190;2022-12-01T15:21:53;12.87;;;12.77;;
11510;SDS011;5812;48.864;9.190;2022-12-01T15:24:21;13.10;;;13.00;;
11510;SDS011;5812;48.864;9.190;2022-12-01T15:26:51;13.40;;;13.30;;
11510;SDS011;5812;48.864;9.190;2022-12-01T15:31:48;12.47;;;12.37;;
11510;SDS011;5812;48.864;9.190;2022-12-01T15:34:18;12.87;;;12.77;;
11510;SDS011;5812;48.864;9.190;2022-12-01T15:36:47;12.30;;;12.20;;
11510;SDS011;5812;48.864;9.190;2022-12-01T15:39:17;13.53;;;13.43;;
11510;SDS011;5812;48.864;9.190;2022-12-01T15:41:45;12.43;;;12.43;;
11510;SDS011;5812;48.864;9.190;2022-12-01T15:50:04;11.60;;;11.57;;
11510;SDS011;5812;48.864;9.190;2022-12-01T15:52:30;12.20;;;12.10;;
11510;SDS011;5812;48.864;9.190;2022-12-01T15:55:05;11.63;;;11.63;;
11510;SDS011;5812;48.864;9.190;2022-12-01T15:57:39;13.23;;;13.13;;
11510;SDS011;5812;48.864;9.190;2022-12-01T16:00:04;14.20;;;14.10;;
11510;SDS011;5812;48.864;9.190;2022-12-01T16:02:31;13.47;;;13.37;;
11510;SDS011;5812;48.864;9.190;2022-12-01T16:05:13;12.90;;;12.80;;
11510;SDS011;5812;48.864;9.190;2022-12-01T16:07:41;11.93;;;11.93;;
11510;SDS011;5812;48.864;9.190;2022-12-01T16:10:23;13.43;;;13.33;;
11510;SDS011;5812;48.864;9.190;2022-12-01T16:12:51;12.50;;;12.50;;
11510;SDS011;5812;48.864;9.190;2022-12-01T16:15:16;13.40;;;13.30;;
11510;SDS011;5812;48.864;9.190;2022-12-01T16:17:49;13.63;;;13.53;;
11510;SDS011;5812;48.864;9.190;2022-12-01T16:20:24;13.87;;;13.77;;
11510;SDS011;5812;48.864;9.190;2022-12-01T16:22:59;13.97;;;13.87;;
11510;SDS011;5812;48.864;9.190;2022-12-01T16:25:38;14.43;;;14.33;;
11510;SDS011;5812;48.864;9.190;2022-12-01T16:28:14;13.80;;;13.70;;
11510;SDS011;5812;48.864;9.190;2022-12-01T16:30:44;14.43;;;14.33;;
11510;SDS011;5812;48.864;9.190;2022-12-01T16:33:15;14.63;;;14.53;;
11510;SDS011;5812;48.864;9.190;2022-12-01T16:35:51;15.23;;;15.13;;
11510;SDS011;5812;48.864;9.190;2022-12-01T16:38:21;15.20;;;15.10;;
11510;SDS011;5812;48.864;9.190;2022-12-01T16:40:49;13.77;;;13.67;;
11510;SDS011;5812;48.864;9.190;2022-12-01T16:43:19;15.17;;;15.07;;
11510;SDS011;5812;48.864;9.190;2022-12-01T16:45:47;15.10;;;15.00;;
11510;SDS011;5812;48.864;9.190;2022-12-01T16:48:19;15.20;;;15.10;;
11510;SDS011;5812;48.864;9.190;2022-12-01T16:50:45;14.37;;;14.27;;
11510;SDS011;5812;48.864;9.190;2022-12-01T16:53:12;15.10;;;15.00;;
11510;SDS011;5812;48.864;9.190;2022-12-01T16:55:42;15.13;;;15.03;;
11510;SDS011;5812;48.864;9.190;2022-12-01T16:58:11;14.60;;;14.50;;
11510;SDS011;5812;48.864;9.190;2022-12-01T17:00:37;14.17;;;14.07;;
11510;SDS011;5812;48.864;9.190;2022-12-01T17:03:03;13.90;;;13.80;;
11510;SDS011;5812;48.864;9.190;2022-12-01T17:05:30;14.87;;;14.77;;
11510;SDS011;5812;48.864;9.190;2022-12-01T17:07:55;14.00;;;13.90;;
11510;SDS011;5812;48.864;9.190;2022-12-01T17:10:21;14.53;;;14.43;;
11510;SDS011;5812;48.864;9.190;2022-12-01T17:12:47;14.23;;;14.13;;
11510;SDS011;5812;48.864;9.190;2022-12-01T17:15:13;14.10;;;14.00;;